Time;durP1;ratioP1;P1;durP2;ratioP2;P2;SDS_P1;SDS_P2;PMS_P1;PMS_P2;Temp;Humidity;BMP_temperature;BMP_pressure;BME280_temperature;BME280_humidity;BME280_pressure;Samples;Min_cycle;Max_cycle;Signal;HPM_P1;HPM_P2
2022/09/27 00:03:54;;;;;;;18.60;10.37;;;;;;;;;;10449580;28;20204;-80
2022/09/27 00:09:15;;;;;;;13.83;10.27;;;;;;;;;;10464432;28;20502;-80
2022/09/27 00:14:37;;;;;;;12.27;10.27;;;;;;;;;;10449900;28;20275;-80
2022/09/27 00:19:59;;;;;;;15.00;10.10;;;;;;;;;;10463797;28;20224;-79
2022/09/27 00:25:21;;;;;;;16.23;10.40;;;;;;;;;;10496484;28;20197;-80
2022/09/27 00:30:42;;;;;;;15.33;10.17;;;;;;;;;;10472900;28;20200;-79
2022/09/27 00:36:05;;;;;;;12.43;9.37;;;;;;;;;;10449223;28;20414;-79
2022/09/27 00:41:29;;;;;;;13.80;9.37;;;;;;;;;;10449258;28;20203;-79
2022/09/27 00:47:00;;;;;;;13.63;9.07;;;;;;;;;;10464333;28;20218;-80
2022/09/27 00:52:28;;;;;;;13.93;9.43;;;;;;;;;;10471160;28;20198;-80
2022/09/27 00:57:50;;;;;;;13.43;9.57;;;;;;;;;;10457379;28;20249;-80
2022/09/27 01:03:15;;;;;;;15.23;10.43;;;;;;;;;;10471009;28;20208;-80
2022/09/27 01:08:36;;;;;;;13.60;9.93;;;;;;;;;;10484655;28;20311;-80
2022/09/27 01:14:17;;;;;;;14.43;9.50;;;;;;;;;;10471385;28;20199;-79
2022/09/27 01:19:57;;;;;;;14.70;9.97;;;;;;;;;;10471070;28;20256;-80
2022/09/27 01:25:32;;;;;;;16.03;10.40;;;;;;;;;;10486500;28;20264;-80
2022/09/27 01:30:54;;;;;;;16.70;10.93;;;;;;;;;;10477782;28;20210;-79
2022/09/27 01:36:20;;;;;;;14.37;10.20;;;;;;;;;;10469788;28;20222;-79
2022/09/27 01:42:03;;;;;;;15.67;10.23;;;9.60;1.00;;;;;;10470036;28;20195;-79
2022/09/27 01:47:50;;;;;;;14.80;11.23;;;9.60;1.00;;;;;;10469364;28;20273;-79
2022/09/27 01:53:39;;;;;;;13.63;10.23;;;9.50;1.00;;;;;;10483097;28;20431;-79
2022/09/27 01:59:31;;;;;;;17.33;12.67;;;;;;;;;;10446268;28;20459;-79
2022/09/27 02:05:16;;;;;;;18.10;13.00;;;9.50;1.00;;;;;;10441685;28;20472;-80
2022/09/27 02:10:43;;;;;;;17.53;12.43;;;;;;;;;;10443666;28;20286;-79
2022/09/27 02:16:22;;;;;;;22.20;13.07;;;9.60;1.00;;;;;;10441857;28;20241;-80
2022/09/27 02:21:58;;;;;;;18.27;13.20;;;9.50;1.00;;;;;;10443168;28;20202;-79
2022/09/27 02:27:33;;;;;;;18.77;13.17;;;9.40;1.00;;;;;;10479912;28;20198;-80
2022/09/27 02:32:59;;;;;;;15.10;11.53;;;9.50;16.20;;;;;;10467376;28;20210;-80
2022/09/27 02:38:21;;;;;;;19.23;13.10;;;9.50;1.00;;;;;;10453194;28;20227;-80
2022/09/27 02:43:45;;;;;;;15.27;11.30;;;9.40;1.00;;;;;;10467079;28;20207;-80
2022/09/27 02:49:25;;;;;;;23.10;16.33;;;9.40;1.00;;;;;;10453301;28;20199;-79
2022/09/27 02:55:05;;;;;;;20.83;15.87;;;9.40;1.00;;;;;;10466290;28;20278;-79
2022/09/27 03:00:51;;;;;;;18.27;13.30;;;9.30;1.00;;;;;;10455169;28;20307;-79
2022/09/27 03:06:34;;;;;;;17.07;12.13;;;9.30;1.00;;;;;;10481451;28;20453;-79
2022/09/27 03:11:55;;;;;;;15.50;11.17;;;9.30;2.50;;;;;;10465708;28;20196;-79
2022/09/27 03:17:19;;;;;;;16.50;10.33;;;9.30;1.00;;;;;;10480239;28;20229;-79
2022/09/27 03:23:07;;;;;;;13.70;10.10;;;9.20;1.00;;;;;;10460136;28;20591;-79
2022/09/27 03:28:29;;;;;;;14.70;9.57;;;;;;;;;;10455335;28;20218;-79
2022/09/27 03:33:51;;;;;;;12.73;9.80;;;9.10;31.60;;;;;;10462878;28;20311;-79
2022/09/27 03:39:13;;;;;;;11.80;9.73;;;9.10;25.00;;;;;;10476401;28;20545;-78
2022/09/27 03:44:35;;;;;;;12.07;9.33;;;9.10;47.50;;;;;;10445821;28;20213;-79
2022/09/27 03:49:57;;;;;;;11.43;9.80;;;9.10;78.30;;;;;;10476045;28;20400;-79
2022/09/27 03:55:18;;;;;;;15.27;11.20;;;9.00;99.90;;;;;;10444215;28;20488;-79
2022/09/27 04:00:40;;;;;;;15.43;11.00;;;9.00;99.90;;;;;;10477909;28;20309;-79
2022/09/27 04:06:02;;;;;;;17.07;13.20;;;9.10;92.70;;;;;;10449895;28;20226;-78
2022/09/27 04:11:30;;;;;;;28.43;19.13;;;9.00;72.10;;;;;;10463838;28;20205;-79
2022/09/27 04:16:51;;;;;;;32.37;20.30;;;9.00;86.20;;;;;;10477964;28;20451;-79
2022/09/27 04:22:22;;;;;;;22.83;14.57;;;9.00;80.10;;;;;;10449694;28;20388;-79
2022/09/27 04:27:44;;;;;;;18.90;13.47;;;9.00;47.10;;;;;;10458722;28;20523;-79
2022/09/27 04:33:07;;;;;;;16.33;11.50;;;9.00;63.40;;;;;;10449372;28;20518;-79
2022/09/27 04:38:47;;;;;;;20.20;13.70;;;8.90;99.90;;;;;;10477989;28;20424;-80
2022/09/27 04:44:12;;;;;;;18.30;13.70;;;8.90;99.90;;;;;;10477265;28;20363;-79
2022/09/27 04:49:38;;;;;;;18.57;14.50;;;8.90;99.90;;;;;;10476820;28;20197;-79
2022/09/27 04:54:59;;;;;;;18.60;13.63;;;8.90;99.90;;;;;;10461930;28;20201;-79
2022/09/27 05:00:24;;;;;;;26.50;18.50;;;8.90;99.90;;;;;;10449051;28;20401;-80
2022/09/27 05:05:54;;;;;;;25.77;18.07;;;9.00;99.90;;;;;;10462064;28;20296;-80
2022/09/27 05:11:15;;;;;;;25.90;16.80;;;9.00;99.90;;;;;;10448494;28;20219;-80
2022/09/27 05:16:57;;;;;;;23.37;16.20;;;9.10;99.90;;;;;;10464816;28;20232;-80
2022/09/27 05:22:27;;;;;;;26.97;17.57;;;9.20;99.90;;;;;;10462806;28;20197;-80
2022/09/27 05:27:50;;;;;;;26.53;19.47;;;9.20;99.90;;;;;;10457492;28;20293;-80
2022/09/27 05:33:12;;;;;;;21.37;16.87;;;9.30;99.90;;;;;;10477385;28;20265;-79
2022/09/27 05:38:37;;;;;;;20.47;14.53;;;9.40;99.90;;;;;;10469970;28;20602;-79
2022/09/27 05:43:58;;;;;;;20.20;13.97;;;9.50;99.90;;;;;;10455461;28;20201;-80
2022/09/27 05:49:20;;;;;;;35.17;22.60;;;9.50;99.90;;;;;;10469073;28;20286;-80
2022/09/27 05:54:42;;;;;;;23.17;15.40;;;9.60;99.90;;;;;;10457341;28;20220;-80
2022/09/27 06:00:03;;;;;;;38.93;29.77;;;9.60;99.90;;;;;;10485673;28;20540;-80
2022/09/27 06:05:37;;;;;;;35.63;23.37;;;9.80;99.90;;;;;;10482899;28;20388;-79
2022/09/27 06:11:28;;;;;;;34.07;21.50;;;10.00;99.90;;;;;;10479657;28;20255;-79
2022/09/27 06:16:49;;;;;;;66.80;36.30;;;10.30;46.00;;;;;;10482263;28;20394;-80
2022/09/27 06:22:10;;;;;;;29.30;19.70;;;10.50;10.90;;;;;;10473457;28;20197;-80
2022/09/27 06:27:40;;;;;;;35.70;21.87;;;10.50;15.20;;;;;;10468566;28;20284;-79
2022/09/27 06:33:19;;;;;;;32.57;20.13;;;10.40;97.40;;;;;;10481548;28;20191;-80
2022/09/27 06:38:47;;;;;;;29.13;22.17;;;10.50;99.90;;;;;;10467172;28;20267;-80
2022/09/27 06:44:14;;;;;;;36.03;23.10;;;10.70;49.40;;;;;;10466129;28;20197;-79
2022/09/27 06:50:08;;;;;;;47.90;25.10;;;11.00;1.00;;;;;;10379668;28;20198;-80
2022/09/27 06:55:30;;;;;;;37.73;25.70;;;11.20;1.00;;;;;;10379682;28;20234;-80
2022/09/27 07:00:52;;;;;;;36.83;24.00;;;11.50;1.00;;;;;;10382129;28;20289;-80
2022/09/27 07:06:36;;;;;;;27.57;18.27;;;11.80;1.00;;;;;;10384563;28;20393;-80
2022/09/27 07:12:10;;;;;;;20.45;15.10;;;12.60;1.00;;;;;;10388908;28;20243;-79
2022/09/27 07:17:32;;;;;;;22.17;16.83;;;;;;;;;;10418544;28;20300;-80
2022/09/27 07:22:53;;;;;;;19.63;15.57;;;13.80;1.00;;;;;;10428879;28;20230;-80
2022/09/27 07:28:17;;;;;;;21.10;16.30;;;14.00;1.00;;;;;;10466209;28;20210;-79
2022/09/27 07:33:41;;;;;;;35.78;22.45;;;14.30;1.00;;;;;;10446271;28;20218;-79
2022/09/27 07:39:04;;;;;;;18.77;12.93;;;;;;;;;;10447201;28;20234;-80
2022/09/27 07:44:27;;;;;;;21.73;16.08;;;;;;;;;;10459273;28;20206;-80
2022/09/27 07:50:18;;;;;;;21.73;16.48;;;;;;;;;;10427880;28;20600;-79
2022/09/27 07:55:57;;;;;;;19.58;13.48;;;;;;;;;;10411869;28;20398;-80
2022/09/27 08:01:21;;;;;;;18.67;14.00;;;13.50;1.00;;;;;;10412081;28;20270;-80
2022/09/27 08:06:43;;;;;;;20.23;15.20;;;13.30;67.80;;;;;;10428390;28;20257;-80
2022/09/27 08:12:05;;;;;;;18.20;14.02;;;13.80;99.90;;;;;;10415373;28;20243;-79
2022/09/27 08:17:27;;;;;;;14.93;11.95;;;;;;;;;;10396779;28;20311;-81
2022/09/27 08:23:06;;;;;;;14.25;11.80;;;;;;;;;;10428535;28;20207;-80
2022/09/27 08:28:31;;;;;;;14.65;11.63;;;16.40;1.00;;;;;;10457004;28;20197;-80
2022/09/27 08:34:04;;;;;;;15.82;12.05;;;15.90;99.90;;;;;;10471475;28;20226;-80
2022/09/27 08:39:25;;;;;;;24.45;14.50;;;15.00;1.00;;;;;;10443285;28;20533;-80
2022/09/27 08:45:23;;;;;;;18.08;12.80;;;14.50;1.00;;;;;;10457625;28;20198;-79
2022/09/27 08:50:47;;;;;;;22.00;15.53;;;14.10;99.90;;;;;;10471649;28;20202;-83
2022/09/27 08:56:10;;;;;;;20.40;14.97;;;13.80;1.00;;;;;;10442735;28;20263;-82
2022/09/27 09:01:35;;;;;;;20.67;15.13;;;13.70;1.00;;;;;;10454525;28;20207;-84
2022/09/27 09:07:17;;;;;;;19.83;15.40;;;13.90;1.00;;;;;;10456897;28;20242;-81
2022/09/27 09:12:55;;;;;;;19.70;14.40;;;14.20;1.00;;;;;;10463074;28;20747;-81
2022/09/27 09:18:58;;;;;;;12.73;10.07;;;15.40;99.90;;;;;;10452162;28;20236;-81
2022/09/27 09:24:48;;;;;;;14.27;11.63;;;15.90;1.00;;;;;;10468501;28;20295;-81
2022/09/27 09:30:09;;;;;;;19.75;12.00;;;15.90;1.00;;;;;;10463100;28;20195;-80
2022/09/27 09:36:00;;;;;;;14.38;11.20;;;15.80;1.00;;;;;;10465738;28;20199;-80
2022/09/27 09:41:37;;;;;;;16.83;12.77;;;15.70;1.00;;;;;;10450202;28;20222;-81
2022/09/27 09:47:01;;;;;;;20.27;14.68;;;15.80;1.00;;;;;;10463009;28;20205;-81
2022/09/27 09:52:28;;;;;;;16.65;12.98;;;15.40;99.90;;;;;;10463584;28;20204;-80
2022/09/27 09:58:00;;;;;;;18.00;13.80;;;15.30;1.00;;;;;;10464310;28;20220;-79
2022/09/27 10:03:29;;;;;;;18.13;13.20;;;15.10;1.00;;;;;;10463736;28;20211;-81
2022/09/27 10:08:53;;;;;;;43.25;21.15;;;14.90;1.00;;;;;;10462886;28;20261;-77
2022/09/27 10:14:26;;;;;;;17.90;14.60;;;14.60;99.90;;;;;;10466819;28;20207;-79
2022/09/27 10:19:58;;;;;;;18.98;13.40;;;14.30;1.00;;;;;;10490123;28;20234;-82
2022/09/27 10:25:20;;;;;;;23.05;15.68;;;14.30;1.00;;;;;;10475838;28;20194;-79
2022/09/27 10:30:55;;;;;;;18.63;14.30;;;14.10;1.00;;;;;;10473116;28;20246;-78
2022/09/27 10:36:28;;;;;;;18.10;12.47;;;14.10;1.00;;;;;;10476923;28;20199;-77
2022/09/27 10:41:49;;;;;;;16.87;12.40;;;14.10;1.10;;;;;;10476128;28;20195;-78
2022/09/27 10:47:21;;;;;;;18.70;13.13;;;14.10;99.90;;;;;;10475479;28;20477;-79
2022/09/27 10:53:04;;;;;;;17.27;13.40;;;14.30;99.90;;;;;;10447396;28;20230;-78
2022/09/27 10:58:25;;;;;;;12.73;10.27;;;14.00;99.90;;;;;;10476553;28;20391;-82
2022/09/27 11:03:59;;;;;;;13.17;8.30;;;13.90;99.90;;;;;;10460594;28;20206;-79
2022/09/27 11:09:26;;;;;;;11.37;9.27;;;13.60;99.90;;;;;;10459617;28;20529;-78
2022/09/27 11:15:13;;;;;;;15.47;10.97;;;13.60;99.90;;;;;;10460041;28;20211;-81
2022/09/27 11:21:04;;;;;;;33.75;18.75;;;13.90;99.90;;;;;;10460810;28;20293;-81
2022/09/27 11:26:47;;;;;;;13.52;10.30;;;14.30;99.90;;;;;;10467112;28;20559;-80
2022/09/27 11:32:37;;;;;;;15.43;9.60;;;14.50;1.00;;;;;;10453016;28;20491;-80
2022/09/27 11:38:17;;;;;;;18.15;11.60;;;14.20;99.90;;;;;;10470002;28;20344;-79
2022/09/27 11:44:13;;;;;;;20.87;15.17;;;13.90;99.90;;;;;;10440221;28;20507;-82
2022/09/27 11:50:11;;;;;;;16.13;10.63;;;13.90;99.90;;;;;;10439882;28;20435;-81
2022/09/27 11:55:45;;;;;;;23.57;15.77;;;13.80;99.90;;;;;;10469038;28;20400;-80
2022/09/27 12:01:37;;;;;;;23.80;17.23;;;13.60;99.90;;;;;;10442736;28;20242;-81
2022/09/27 12:07:22;;;;;;;16.03;11.63;;;13.60;99.90;;;;;;10457075;28;20260;-81
2022/09/27 12:12:50;;;;;;;19.03;11.80;;;13.70;99.90;;;;;;10458640;28;20515;-77
2022/09/27 12:18:40;;;;;;;16.40;12.10;;;14.00;1.00;;;;;;10469408;28;20226;-79
2022/09/27 12:24:23;;;;;;;13.83;10.60;;;14.10;99.90;;;;;;10476256;28;20244;-80
2022/09/27 12:30:06;;;;;;;13.68;10.15;;;14.80;99.90;;;;;;10455385;28;20290;-80
2022/09/27 12:35:29;;;;;;;15.27;10.30;;;;;;;;;;10444446;28;20217;-80
2022/09/27 12:40:54;;;;;;;15.13;11.20;;;17.00;1.00;;;;;;10459295;28;20236;-80
2022/09/27 12:46:30;;;;;;;14.80;10.95;;;17.10;99.90;;;;;;10463838;28;20248;-78
2022/09/27 12:52:02;;;;;;;12.10;10.13;;;17.50;1.00;;;;;;10471259;28;20202;-80
2022/09/27 12:57:49;;;;;;;24.08;16.20;;;16.90;1.00;;;;;;10432948;28;20516;-79
2022/09/27 13:03:14;;;;;;;17.27;12.68;;;16.50;1.00;;;;;;10426116;28;20199;-80
2022/09/27 13:09:22;;;;;;;15.07;11.30;;;15.70;99.90;;;;;;10457957;28;20235;-79
2022/09/27 13:15:07;;;;;;;12.88;11.30;;;15.50;1.00;;;;;;10452833;28;20219;-79
2022/09/27 13:20:35;;;;;;;14.18;11.55;;;15.40;1.00;;;;;;10455141;28;20250;-78
2022/09/27 13:26:22;;;;;;;15.77;12.33;;;14.90;1.00;;;;;;10461689;28;20227;-78
2022/09/27 13:32:01;;;;;;;15.30;11.75;;;14.80;1.00;;;;;;10453599;28;20214;-79
2022/09/27 13:37:47;;;;;;;15.48;12.38;;;14.70;1.00;;;;;;10453234;28;20396;-79
2022/09/27 13:43:36;;;;;;;18.20;12.90;;;14.70;1.00;;;;;;10440144;28;20528;-83
2022/09/27 13:49:17;;;;;;;15.57;13.60;;;14.70;4.90;;;;;;10446869;28;20430;-81
2022/09/27 13:55:02;;;;;;;19.87;14.83;;;14.60;72.30;;;;;;10470284;28;20223;-80
2022/09/27 14:00:37;;;;;;;18.07;14.07;;;14.70;28.20;;;;;;10472480;28;20239;-81
2022/09/27 14:06:05;;;;;;;22.80;16.73;;;14.70;21.10;;;;;;10459814;28;20576;-79
2022/09/27 14:11:41;;;;;;;25.53;17.00;;;14.80;1.00;;;;;;10415938;28;20215;-79
2022/09/27 14:17:06;;;;;;;19.90;15.27;;;14.70;69.80;;;;;;10420732;28;20220;-81
2022/09/27 14:22:30;;;;;;;17.48;15.35;;;14.80;27.40;;;;;;10419564;28;20218;-77
2022/09/27 14:27:59;;;;;;;20.30;17.15;;;14.80;11.70;;;;;;10448982;28;20202;-80
2022/09/27 14:33:31;;;;;;;25.83;17.83;;;14.80;43.50;;;;;;10403941;28;20209;-79
2022/09/27 14:39:00;;;;;;;22.23;17.23;;;14.70;99.90;;;;;;10382273;28;20237;-79
2022/09/27 14:44:31;;;;;;;22.83;17.63;;;14.70;22.70;;;;;;10382161;28;20223;-79
2022/09/27 14:49:59;;;;;;;23.50;18.57;;;14.50;27.90;;;;;;10395216;28;20204;-79
2022/09/27 14:55:23;;;;;;;26.35;19.70;;;14.50;18.60;;;;;;10381887;28;20484;-78
2022/09/27 15:00:46;;;;;;;23.58;16.77;;;14.60;30.00;;;;;;10380500;28;20232;-79
2022/09/27 15:06:08;;;;;;;22.40;16.30;;;14.60;44.90;;;;;;10422469;28;20563;-79
2022/09/27 15:11:32;;;;;;;24.02;18.77;;;14.60;52.30;;;;;;10446159;28;20213;-79
2022/09/27 15:16:54;;;;;;;26.60;19.37;;;14.50;46.70;;;;;;10464574;28;20462;-79
2022/09/27 15:22:42;;;;;;;23.67;19.37;;;14.40;99.90;;;;;;10468768;28;20225;-80
2022/09/27 15:28:15;;;;;;;26.43;19.17;;;14.30;99.90;;;;;;10462745;28;20226;-79
2022/09/27 15:33:36;;;;;;;25.93;18.80;;;14.30;99.90;;;;;;10476446;28;20447;-80
2022/09/27 15:39:10;;;;;;;20.42;17.20;;;14.20;99.90;;;;;;10476680;28;20231;-78
2022/09/27 15:44:43;;;;;;;29.27;20.20;;;14.20;99.90;;;;;;10476288;28;20202;-79
2022/09/27 15:50:14;;;;;;;25.80;19.23;;;14.10;99.90;;;;;;10478282;28;20205;-79
2022/09/27 15:55:43;;;;;;;27.10;21.63;;;14.10;1.00;;;;;;10464067;28;20222;-80
2022/09/27 16:01:05;;;;;;;31.93;25.10;;;14.10;1.00;;;;;;10479320;28;20256;-80
2022/09/27 16:06:27;;;;;;;31.40;23.00;;;14.00;1.00;;;;;;10477191;28;20235;-80
2022/09/27 16:11:49;;;;;;;37.80;26.87;;;13.90;1.00;;;;;;10469308;28;20506;-78
2022/09/27 16:17:11;;;;;;;43.33;28.37;;;13.80;1.00;;;;;;10436576;28;20408;-78
2022/09/27 16:22:32;;;;;;;38.17;29.40;;;13.70;1.00;;;;;;10438497;28;20221;-80
2022/09/27 16:27:58;;;;;;;38.10;28.63;;;13.60;1.00;;;;;;10480405;28;20224;-80
2022/09/27 16:33:19;;;;;;;37.20;28.33;;;13.50;1.00;;;;;;10476689;28;20420;-81
2022/09/27 16:38:41;;;;;;;37.07;28.00;;;13.50;1.00;;;;;;10476961;28;20488;-79
2022/09/27 16:44:11;;;;;;;36.97;27.13;;;13.50;1.00;;;;;;10461924;28;20219;-80
2022/09/27 16:55:16;;;;;;;44.63;33.73;;;13.40;1.00;;;;;;10478009;28;20200;-80
2022/09/27 17:00:40;;;;;;;40.30;29.20;;;13.50;1.00;;;;;;10463773;28;20226;-79
2022/09/27 17:06:05;;;;;;;45.00;32.13;;;13.40;1.00;;;;;;10476085;28;20456;-80
2022/09/27 17:11:26;;;;;;;46.87;32.93;;;13.40;1.00;;;;;;10474805;28;20211;-80
2022/09/27 17:16:49;;;;;;;42.47;31.80;;;13.30;1.00;;;;;;10435549;28;20199;-88
2022/09/27 17:22:10;;;;;;;41.50;29.43;;;13.30;1.00;;;;;;10435875;28;20296;-80
2022/09/27 17:27:32;;;;;;;41.33;30.03;;;13.40;1.00;;;;;;10475656;28;20209;-79
2022/09/27 17:32:53;;;;;;;38.47;28.13;;;13.30;10.10;;;;;;10468930;28;20504;-78
2022/09/27 17:38:14;;;;;;;41.53;29.67;;;13.30;37.50;;;;;;10485458;28;20512;-79
2022/09/27 17:43:48;;;;;;;47.37;31.03;;;13.30;99.90;;;;;;10485219;28;20489;-79
2022/09/27 17:54:54;;;;;;;45.03;32.43;;;13.30;99.90;;;;;;10469607;28;20293;-81
2022/09/27 18:00:17;;;;;;;42.63;30.83;;;13.20;99.90;;;;;;10469728;28;20226;-80
2022/09/27 18:05:38;;;;;;;41.83;32.17;;;13.20;99.90;;;;;;10482447;28;20245;-79
2022/09/27 18:11:06;;;;;;;44.07;32.23;;;13.20;99.90;;;;;;10461098;28;20222;-80
2022/09/27 18:16:31;;;;;;;42.37;31.40;;;13.10;99.90;;;;;;10454266;28;20214;-80
2022/09/27 18:21:52;;;;;;;43.37;32.60;;;13.10;99.90;;;;;;10468583;28;20250;-82
2022/09/27 18:27:17;;;;;;;41.93;30.53;;;13.10;99.90;;;;;;10495915;28;20196;-83
2022/09/27 18:32:39;;;;;;;44.17;32.20;;;13.10;99.90;;;;;;10492488;28;20272;-81
2022/09/27 18:38:00;;;;;;;40.40;29.80;;;13.10;99.90;;;;;;10508123;28;20195;-80
2022/09/27 18:43:21;;;;;;;40.73;30.87;;;13.00;99.90;;;;;;10464960;28;20366;-83
2022/09/27 18:48:43;;;;;;;40.70;29.03;;;13.00;99.90;;;;;;10483000;28;20200;-82
2022/09/27 18:54:08;;;;;;;37.53;27.07;;;13.00;99.90;;;;;;10466390;28;20193;-82
2022/09/27 18:59:29;;;;;;;25.23;20.90;;;12.90;99.90;;;;;;10456313;28;20562;-83
2022/09/27 19:04:50;;;;;;;24.40;18.80;;;12.70;99.90;;;;;;10466957;28;20251;-82
2022/09/27 19:10:12;;;;;;;23.93;17.57;;;12.60;99.90;;;;;;10446645;28;20236;-81
2022/09/27 19:15:33;;;;;;;22.83;17.73;;;12.60;99.90;;;;;;10439877;28;20190;-82
2022/09/27 19:21:03;;;;;;;19.13;15.97;;;12.40;99.90;;;;;;10425135;28;20287;-81
2022/09/27 19:26:26;;;;;;;18.33;13.73;;;12.40;99.90;;;;;;10483585;28;20254;-81
2022/09/27 19:31:47;;;;;;;17.07;12.87;;;12.20;99.90;;;;;;10491316;28;20198;-82
2022/09/27 19:37:08;;;;;;;15.50;12.43;;;12.20;99.90;;;;;;10480666;28;20218;-81
2022/09/27 19:42:29;;;;;;;16.80;11.60;;;12.30;99.90;;;;;;10479673;28;20272;-83
2022/09/27 19:47:51;;;;;;;12.87;9.30;;;12.30;99.90;;;;;;10451793;28;20202;-83
2022/09/27 19:53:12;;;;;;;23.03;13.77;;;12.20;99.90;;;;;;10480354;28;20437;-80
2022/09/27 19:58:35;;;;;;;15.47;10.93;;;12.20;99.90;;;;;;10464659;28;20227;-82
2022/09/27 20:03:58;;;;;;;12.27;10.33;;;12.10;99.90;;;;;;10479136;28;20484;-82
2022/09/27 20:09:20;;;;;;;13.43;8.37;;;12.10;99.90;;;;;;10464393;28;20418;-82
2022/09/27 20:14:41;;;;;;;9.57;7.10;;;12.10;99.90;;;;;;10451202;28;20206;-82
2022/09/27 20:20:03;;;;;;;13.63;8.50;;;12.00;99.90;;;;;;10457000;28;20542;-81
2022/09/27 20:25:25;;;;;;;8.93;7.23;;;12.00;99.90;;;;;;10477504;28;20202;-82
2022/09/27 20:30:56;;;;;;;20.97;18.37;;;11.90;99.90;;;;;;10477717;28;20197;-81
2022/09/27 20:36:21;;;;;;;13.17;8.50;;;11.90;99.90;;;;;;10477242;28;20234;-81
2022/09/27 20:41:45;;;;;;;21.67;13.60;;;12.00;99.90;;;;;;10435913;28;20219;-81
2022/09/27 20:47:06;;;;;;;29.77;17.47;;;12.00;99.90;;;;;;10432218;28;20193;-81
2022/09/27 20:52:27;;;;;;;12.47;8.37;;;11.90;99.90;;;;;;10449115;28;20498;-81
2022/09/27 20:57:49;;;;;;;32.03;15.97;;;11.90;99.90;;;;;;10463063;28;20216;-81
2022/09/27 21:03:17;;;;;;;35.00;17.03;;;11.80;99.90;;;;;;10462835;28;20424;-81
2022/09/27 21:08:41;;;;;;;10.77;7.63;;;11.80;99.90;;;;;;10470904;28;20428;-81
2022/09/27 21:14:03;;;;;;;11.00;8.03;;;11.70;99.90;;;;;;10468682;28;20205;-82
2022/09/27 21:19:24;;;;;;;7.93;6.00;;;11.70;99.90;;;;;;10472204;28;20279;-81
2022/09/27 21:24:45;;;;;;;5.27;4.20;;;11.70;99.90;;;;;;10492841;28;20275;-81
2022/09/27 21:30:07;;;;;;;13.50;6.40;;;11.70;99.90;;;;;;10476935;28;20200;-80
2022/09/27 21:35:28;;;;;;;5.87;5.27;;;11.50;99.90;;;;;;10484635;28;20193;-82
2022/09/27 21:40:57;;;;;;;6.40;4.53;;;11.50;99.90;;;;;;10485145;28;20217;-82
2022/09/27 21:46:22;;;;;;;5.73;4.33;;;11.60;99.90;;;;;;10483817;28;20189;-81
2022/09/27 21:51:43;;;;;;;4.40;3.10;;;11.50;99.90;;;;;;10469684;28;20204;-81
2022/09/27 21:57:05;;;;;;;6.73;3.80;;;11.40;99.90;;;;;;10469341;28;20194;-82
2022/09/27 22:02:26;;;;;;;4.77;2.93;;;11.40;99.90;;;;;;10469198;28;20236;-83
2022/09/27 22:07:47;;;;;;;3.40;2.73;;;11.50;99.90;;;;;;10468870;28;20252;-82
2022/09/27 22:13:09;;;;;;;4.00;2.70;;;11.40;99.90;;;;;;10467709;28;20487;-82
2022/09/27 22:18:34;;;;;;;2.73;2.10;;;11.30;99.90;;;;;;10468094;28;20202;-82
2022/09/27 22:23:57;;;;;;;1.90;1.70;;;11.20;99.90;;;;;;10484057;28;20227;-83
2022/09/27 22:29:18;;;;;;;4.60;2.13;;;11.20;99.90;;;;;;10468988;28;20196;-82
2022/09/27 22:34:39;;;;;;;5.20;3.10;;;11.20;99.90;;;;;;10454110;28;20220;-81
2022/09/27 22:40:01;;;;;;;4.60;2.47;;;11.20;99.90;;;;;;10467861;28;20228;-82
2022/09/27 22:45:22;;;;;;;3.27;2.30;;;11.20;99.90;;;;;;10481395;28;20184;-82
2022/09/27 22:50:44;;;;;;;1.80;1.70;;;11.20;99.90;;;;;;10467133;28;20196;-81
2022/09/27 22:56:14;;;;;;;2.93;1.97;;;11.20;99.90;;;;;;10481379;28;20194;-83
2022/09/27 23:01:36;;;;;;;2.60;1.90;;;11.10;99.90;;;;;;10481144;28;20427;-81
2022/09/27 23:06:57;;;;;;;2.40;2.10;;;11.00;99.90;;;;;;10480793;28;20450;-81
2022/09/27 23:12:19;;;;;;;3.77;2.60;;;10.90;99.90;;;;;;10465828;28;20204;-82
2022/09/27 23:17:41;;;;;;;3.23;2.50;;;11.00;99.90;;;;;;10480550;28;20197;-82
2022/09/27 23:23:02;;;;;;;4.60;3.43;;;10.90;99.90;;;;;;10481790;28;20527;-82
2022/09/27 23:28:23;;;;;;;4.63;3.40;;;10.90;99.90;;;;;;10475131;28;20267;-83
2022/09/27 23:33:47;;;;;;;3.90;3.00;;;10.80;99.90;;;;;;10497052;28;20200;-82
2022/09/27 23:39:08;;;;;;;3.13;2.70;;;10.80;99.90;;;;;;10465783;28;20212;-82
2022/09/27 23:44:30;;;;;;;2.53;2.13;;;10.80;99.90;;;;;;10465827;28;20223;-82
2022/09/27 23:49:51;;;;;;;2.83;2.53;;;10.70;99.90;;;;;;10478242;28;20206;-82
2022/09/27 23:55:12;;;;;;;4.10;2.27;;;10.70;99.90;;;;;;10478557;28;20221;-81
